Time;durP1;ratioP1;P1;durP2;ratioP2;P2;SDS_P1;SDS_P2;PMS_P1;PMS_P2;Temp;Humidity;BMP_temperature;BMP_pressure;BME280_temperature;BME280_humidity;BME280_pressure;Samples;Min_cycle;Max_cycle;Signal;HPM_P1;HPM_P2
2022/05/10 00:00:13;;;;;;;4.40;1.52;;;;;;;7.55;49.96;101030.91;1779961;80;20981;-67
2022/05/10 00:02:46;;;;;;;6.95;1.37;;;;;;;7.51;50.04;101035.09;1760456;80;21437;-67
2022/05/10 00:05:12;;;;;;;3.45;1.60;;;;;;;7.49;50.23;101033.02;1767773;80;20991;-67
2022/05/10 00:07:39;;;;;;;3.60;1.37;;;;;;;7.45;50.33;101032.36;1742296;80;21981;-67
2022/05/10 00:10:08;;;;;;;3.12;1.30;;;;;;;7.40;50.29;101031.28;1779072;80;20988;-67
2022/05/10 00:12:35;;;;;;;3.87;1.52;;;;;;;7.36;50.57;101028.46;1777304;80;21483;-67
2022/05/10 00:15:03;;;;;;;3.65;1.27;;;;;;;7.29;50.67;101025.78;1741101;80;21010;-67
2022/05/10 00:17:36;;;;;;;3.00;1.70;;;;;;;7.25;50.75;101023.42;1755869;80;20992;-67
2022/05/10 00:20:06;;;;;;;3.95;1.67;;;;;;;7.25;50.79;101025.59;1779657;80;21942;-67
2022/05/10 00:22:33;;;;;;;2.42;1.30;;;;;;;7.24;50.77;101031.78;1778668;80;20992;-67
2022/05/10 00:25:00;;;;;;;3.65;1.50;;;;;;;7.23;50.88;101026.58;1771398;80;21018;-67
2022/05/10 00:27:26;;;;;;;2.47;1.62;;;;;;;7.22;50.98;101026.20;1760489;80;20958;-67
2022/05/10 00:29:53;;;;;;;4.97;1.42;;;;;;;7.22;51.08;101030.14;1776927;79;21008;-67
2022/05/10 00:32:19;;;;;;;4.15;1.50;;;;;;;7.20;51.00;101022.34;1777147;80;21946;-67
2022/05/10 00:34:48;;;;;;;5.78;1.57;;;;;;;7.23;51.06;101025.27;1750925;81;21380;-68
2022/05/10 00:37:14;;;;;;;4.00;1.82;;;;;;;7.22;51.07;101024.42;1766669;80;21016;-67
2022/05/10 00:39:41;;;;;;;5.75;1.77;;;;;;;7.22;51.17;101026.20;1781849;80;21067;-68
2022/05/10 00:42:33;;;;;;;5.78;2.70;;;;;;;7.17;51.22;101027.31;1780444;80;20949;-67
2022/05/10 00:45:08;;;;;;;6.17;2.60;;;;;;;7.13;51.30;101028.39;1782077;80;21948;-67
2022/05/10 00:47:52;;;;;;;4.87;2.33;;;;;;;7.07;51.37;101037.09;1792577;79;21629;-67
2022/05/10 00:50:39;;;;;;;9.13;3.75;;;;;;;7.01;51.59;101035.64;1766622;81;20951;-69
2022/05/10 00:53:11;;;;;;;8.53;3.55;;;;;;;6.96;51.63;101033.74;1740338;82;20968;-67
2022/05/10 00:55:55;;;;;;;9.10;3.80;;;;;;;6.92;51.90;101036.59;1751038;82;20943;-67
2022/05/10 00:58:45;;;;;;;7.28;3.50;;;;;;;6.86;52.04;101037.33;1767564;79;21856;-67
2022/05/10 01:01:16;;;;;;;7.87;2.98;;;;;;;6.82;52.21;101041.02;1780834;79;20908;-67
2022/05/10 01:04:05;;;;;;;6.50;2.62;;;;;;;6.75;52.46;101034.86;1770159;79;21040;-68
2022/05/10 01:06:40;;;;;;;5.05;2.30;;;;;;;6.66;52.52;101036.66;1750865;82;21047;-69
2022/05/10 01:09:15;;;;;;;5.47;2.00;;;;;;;6.60;52.62;101037.37;1733748;80;21440;-69
2022/05/10 01:11:53;;;;;;;3.95;2.30;;;;;;;6.58;52.70;101034.46;1746131;79;22762;-68
2022/05/10 01:14:25;;;;;;;4.85;2.20;;;;;;;6.51;52.90;101036.55;1781674;80;21396;-68
2022/05/10 01:16:52;;;;;;;3.20;1.82;;;;;;;6.43;53.05;101036.09;1780842;80;20960;-68
2022/05/10 01:19:18;;;;;;;6.15;2.10;;;;;;;6.34;53.27;101031.31;1780155;79;20945;-68
2022/05/10 01:22:12;;;;;;;6.65;2.10;;;;;;;6.28;53.37;101035.12;1780715;79;20936;-69
2022/05/10 01:24:52;;;;;;;4.00;2.10;;;;;;;6.24;53.54;101030.09;1714715;80;21830;-68
2022/05/10 01:28:00;;;;;;;4.83;1.95;;;;;;;6.16;53.85;101027.84;1772985;79;20952;-68
2022/05/10 01:30:29;;;;;;;4.67;1.87;;;;;;;6.08;54.13;101024.79;1781683;80;20999;-68
2022/05/10 01:36:09;;;;;;;3.10;1.75;;;;;;;5.92;54.50;101023.38;1781766;80;20961;-68
2022/05/10 01:38:59;;;;;;;7.25;1.90;;;;;;;5.85;54.70;101026.34;1780691;79;21810;-68
2022/05/10 01:41:51;;;;;;;3.60;1.70;;;;;;;5.81;54.84;101026.13;1764845;80;20995;-68
2022/05/10 01:44:40;;;;;;;5.12;1.82;;;;;;;5.76;54.90;101019.78;1733077;81;20951;-68
2022/05/10 01:47:32;;;;;;;3.52;1.87;;;;;;;5.70;54.97;101020.95;1726630;83;21025;-68
2022/05/10 01:50:10;;;;;;;4.87;2.05;;;;;;;5.64;55.15;101027.78;1761971;81;21016;-68
2022/05/10 01:53:15;;;;;;;3.30;1.75;;;;;;;5.60;55.06;101019.70;1779289;80;21841;-67
2022/05/10 01:55:49;;;;;;;3.98;1.80;;;;;;;5.59;55.25;101019.74;1781763;80;21003;-68
2022/05/10 01:58:25;;;;;;;6.58;1.95;;;;;;;5.54;55.37;101026.53;1780973;79;20953;-67
2022/05/10 02:01:22;;;;;;;4.62;2.40;;;;;;;5.51;55.33;101025.84;1780123;80;21498;-68
2022/05/10 02:04:09;;;;;;;5.42;2.20;;;;;;;5.44;55.52;101026.13;1780225;80;20944;-68
2022/05/10 02:06:46;;;;;;;3.42;2.33;;;;;;;5.37;55.58;101027.79;1780265;80;21831;-67
2022/05/10 02:09:25;;;;;;;3.42;2.05;;;;;;;5.32;55.60;101028.02;1780491;80;21023;-68
2022/05/10 02:12:09;;;;;;;4.33;2.35;;;;;;;5.30;55.67;101022.45;1781647;79;21042;-68
2022/05/10 02:14:45;;;;;;;4.75;2.60;;;;;;;5.29;55.54;101024.68;1753319;80;20996;-69
2022/05/10 02:17:22;;;;;;;5.58;2.67;;;;;;;5.27;55.65;101026.53;1781573;79;20988;-68
2022/05/10 02:20:06;;;;;;;4.92;2.87;;;;;;;5.24;55.73;101026.22;1780703;79;21845;-68
2022/05/10 02:23:05;;;;;;;6.90;2.75;;;;;;;5.23;55.77;101023.68;1781576;79;21051;-68
2022/05/10 02:25:39;;;;;;;5.00;2.72;;;;;;;5.22;55.89;101023.30;1763550;79;21039;-68
2022/05/10 02:28:21;;;;;;;;;;;;;;;5.16;55.95;101026.57;1780162;79;20953;-68
2022/05/10 02:30:53;;;;;;;5.20;3.08;;;;;;;5.14;56.10;101026.27;1738776;82;20144;-68
2022/05/10 02:33:19;;;;;;;4.62;3.00;;;;;;;5.07;56.11;101028.30;1763303;80;21855;-68
2022/05/10 02:35:54;;;;;;;6.67;3.22;;;;;;;5.04;56.26;101024.53;1779388;80;21067;-68
2022/05/10 02:38:32;;;;;;;5.17;2.98;;;;;;;5.04;56.30;101031.53;1781316;80;21047;-68
2022/05/10 02:41:01;;;;;;;7.10;3.35;;;;;;;5.04;56.42;101032.38;1778485;80;20948;-67
2022/05/10 02:43:32;;;;;;;6.80;3.33;;;;;;;5.05;56.54;101041.09;1778746;80;20984;-69
2022/05/10 02:45:59;;;;;;;6.47;3.22;;;;;;;5.06;56.56;101037.55;1780163;80;21790;-68
2022/05/10 02:48:29;;;;;;;9.05;3.75;;;;;;;5.07;56.66;101044.02;1749617;80;21009;-68
2022/05/10 02:50:58;;;;;;;6.33;3.75;;;;;;;5.08;56.59;101044.41;1770084;80;20992;-67
2022/05/10 02:53:25;;;;;;;7.47;3.80;;;;;;;5.09;56.67;101040.02;1774332;80;20981;-69
2022/05/10 02:56:04;;;;;;;7.53;3.72;;;;;;;5.15;56.55;101039.28;1736071;82;21030;-68
2022/05/10 02:58:54;;;;;;;7.42;3.55;;;;;;;5.20;56.57;101035.12;1779955;80;21796;-68
2022/05/10 03:01:32;;;;;;;7.67;3.67;;;;;;;5.22;56.62;101034.62;1736209;82;20956;-68
2022/05/10 03:03:58;;;;;;;7.12;3.75;;;;;;;5.22;56.68;101037.23;1739511;79;21424;-67
2022/05/10 03:06:26;;;;;;;6.67;3.98;;;;;;;5.25;56.71;101038.85;1761994;80;21000;-68
2022/05/10 03:08:56;;;;;;;10.30;4.22;;;;;;;5.29;56.81;101037.78;1771472;80;21504;-67
2022/05/10 03:11:22;;;;;;;9.35;4.08;;;;;;;5.32;56.84;101037.66;1748713;82;21883;-67
2022/05/10 03:13:50;;;;;;;6.83;3.70;;;;;;;5.35;56.76;101033.57;1748648;82;20958;-68
2022/05/10 03:16:17;;;;;;;6.10;3.47;;;;;;;5.43;56.56;101038.84;1754219;80;20941;-68
2022/05/10 03:18:44;;;;;;;6.95;3.75;;;;;;;5.53;56.40;101039.71;1759864;79;21059;-68
2022/05/10 03:21:12;;;;;;;7.45;3.47;;;;;;;5.63;56.05;101043.59;1774684;80;21565;-68
2022/05/10 03:23:39;;;;;;;5.50;3.10;;;;;;;5.71;56.13;101043.61;1779405;80;22798;-68
2022/05/10 03:26:06;;;;;;;7.85;3.40;;;;;;;5.79;55.63;101039.74;1779489;80;20980;-68
2022/05/10 03:28:34;;;;;;;10.13;3.60;;;;;;;5.92;55.11;101036.95;1778313;80;20976;-68
2022/05/10 03:31:01;;;;;;;4.80;3.47;;;;;;;6.05;54.87;101045.90;1779391;80;21028;-68
2022/05/10 03:33:27;;;;;;;6.50;3.30;;;;;;;6.15;54.96;101041.89;1781148;80;20956;-68
2022/05/10 03:35:55;;;;;;;5.45;3.40;;;;;;;6.26;54.75;101042.66;1781227;80;21822;-68
2022/05/10 03:38:21;;;;;;;7.62;3.30;;;;;;;6.34;54.10;101040.50;1781648;80;21047;-68
2022/05/10 03:40:48;;;;;;;4.45;3.10;;;;;;;6.49;53.80;101044.12;1745736;80;20961;-68
2022/05/10 03:43:14;;;;;;;5.95;3.22;;;;;;;6.60;53.58;101047.03;1752289;80;20995;-68
2022/05/10 03:45:41;;;;;;;6.90;2.60;;;;;;;6.69;53.25;101045.70;1781892;80;21554;-67
2022/05/10 03:48:08;;;;;;;5.40;2.90;;;;;;;6.77;53.08;101047.00;1781535;80;21928;-68
2022/05/10 03:50:35;;;;;;;6.72;3.15;;;;;;;6.86;52.53;101046.52;1777179;80;20996;-68
2022/05/10 03:53:02;;;;;;;4.62;2.90;;;;;;;7.00;52.16;101046.23;1782192;80;21582;-68
2022/05/10 03:55:28;;;;;;;5.53;2.75;;;;;;;7.10;51.81;101047.43;1770181;80;21438;-68
2022/05/10 03:57:55;;;;;;;8.05;2.90;;;;;;;7.20;51.55;101038.11;1761225;80;21002;-68
2022/05/10 04:00:28;;;;;;;4.70;2.60;;;;;;;7.31;51.31;101036.20;1751009;82;21918;-68
2022/05/10 04:02:56;;;;;;;4.53;2.30;;;;;;;7.41;51.08;101038.23;1751202;82;21005;-68
2022/05/10 04:05:24;;;;;;;5.42;2.67;;;;;;;7.51;50.82;101041.20;1730529;80;21073;-68
2022/05/10 04:07:51;;;;;;;5.35;2.17;;;;;;;7.60;50.49;101035.89;1778618;80;21139;-68
2022/05/10 04:10:18;;;;;;;5.17;2.37;;;;;;;7.69;50.03;101027.02;1782050;80;20936;-68
2022/05/10 04:12:45;;;;;;;7.08;2.35;;;;;;;7.80;49.63;101034.29;1783602;80;21950;-68
2022/05/10 04:15:15;;;;;;;4.87;2.42;;;;;;;7.92;49.32;101034.92;1782103;80;20988;-68
2022/05/10 04:17:42;;;;;;;4.95;2.30;;;;;;;8.02;49.07;101038.71;1780810;80;20981;-68
2022/05/10 04:20:12;;;;;;;4.72;2.58;;;;;;;8.12;48.48;101036.39;1780495;80;20972;-68
2022/05/10 04:22:39;;;;;;;5.25;2.17;;;;;;;8.23;48.18;101034.44;1780769;80;20953;-73
2022/05/10 04:25:07;;;;;;;6.35;2.15;;;;;;;8.32;48.12;101032.59;1777153;80;21937;-68
2022/05/10 04:27:35;;;;;;;5.80;2.42;;;;;;;8.41;47.91;101032.07;1770570;80;21038;-68
2022/05/10 04:30:03;;;;;;;3.70;2.10;;;;;;;8.50;47.61;101031.98;1764252;80;21000;-69
2022/05/10 04:32:30;;;;;;;4.33;2.20;;;;;;;8.60;47.33;101033.97;1781729;80;21023;-68
2022/05/10 04:34:56;;;;;;;3.55;1.90;;;;;;;8.72;47.13;101034.16;1781883;80;21470;-68
2022/05/10 04:37:23;;;;;;;5.47;2.10;;;;;;;8.81;46.55;101034.44;1760027;79;21809;-67
2022/05/10 04:42:35;;;;;;;4.42;2.00;;;;;;;9.01;46.39;101025.30;1779570;80;21027;-69
2022/05/10 04:45:03;;;;;;;5.62;2.30;;;;;;;9.14;46.14;101024.89;1781854;80;21047;-68
2022/05/10 04:47:30;;;;;;;6.12;2.12;;;;;;;9.23;45.73;101025.27;1760418;79;20952;-68
2022/05/10 04:49:56;;;;;;;5.17;2.05;;;;;;;9.31;45.58;101024.31;1758474;81;21791;-68
2022/05/10 04:52:23;;;;;;;8.10;2.20;;;;;;;9.39;45.36;101021.56;1760969;80;21007;-68
2022/05/10 04:54:49;;;;;;;5.05;2.08;;;;;;;9.48;45.25;101014.85;1783252;79;21008;-68
2022/05/10 04:57:17;;;;;;;4.00;1.87;;;;;;;9.60;45.38;101015.37;1758453;81;21465;-68
2022/05/10 04:59:44;;;;;;;6.10;2.30;;;;;;;9.70;43.98;101013.81;1783236;79;21401;-68
2022/05/10 05:02:10;;;;;;;7.33;1.98;;;;;;;9.80;43.65;101010.10;1764853;81;22436;-68
2022/05/10 05:04:37;;;;;;;2.98;2.02;;;;;;;9.91;43.78;101018.15;1740793;79;21037;-68
2022/05/10 05:07:04;;;;;;;4.08;1.87;;;;;;;10.02;43.48;101022.70;1758220;79;20991;-70
2022/05/10 05:09:31;;;;;;;4.20;1.95;;;;;;;10.13;43.05;101023.31;1764690;79;21379;-72
2022/05/10 05:11:57;;;;;;;4.70;2.10;;;;;;;10.22;42.72;101020.08;1776550;80;20933;-68
2022/05/10 05:14:24;;;;;;;3.37;1.98;;;;;;;10.29;42.70;101022.20;1771458;80;21811;-68
2022/05/10 05:16:54;;;;;;;6.78;1.90;;;;;;;10.38;42.41;101018.09;1763919;80;20951;-68
2022/05/10 05:19:19;;;;;;;6.40;2.00;;;;;;;10.45;42.37;101020.70;1781740;80;20947;-68
2022/05/10 05:21:46;;;;;;;3.47;2.30;;;;;;;10.52;41.94;101017.17;1781501;79;21004;-68
2022/05/10 05:24:13;;;;;;;5.85;2.05;;;;;;;10.60;41.89;101016.14;1778049;79;20999;-68
2022/05/10 05:26:39;;;;;;;9.65;2.00;;;;;;;10.71;41.09;101018.03;1727657;82;21991;-71
2022/05/10 05:29:06;;;;;;;3.60;2.00;;;;;;;10.82;41.09;101020.80;1755470;81;21449;-70
2022/05/10 05:31:33;;;;;;;4.33;2.10;;;;;;;10.94;40.32;101018.61;1765419;81;20956;-68
2022/05/10 05:33:59;;;;;;;3.47;2.08;;;;;;;11.05;40.29;101023.97;1771635;80;21403;-68
2022/05/10 05:36:26;;;;;;;4.00;1.70;;;;;;;11.15;39.58;101018.88;1758675;80;21351;-68
2022/05/10 05:38:52;;;;;;;2.83;1.70;;;;;;;11.26;39.57;101015.45;1781349;79;21996;-70
2022/05/10 05:41:19;;;;;;;3.70;1.70;;;;;;;11.37;38.56;101011.55;1781644;80;21004;-68
2022/05/10 05:43:48;;;;;;;5.30;1.85;;;;;;;11.47;37.53;101019.19;1751098;79;20954;-68
2022/05/10 05:46:16;;;;;;;3.25;1.70;;;;;;;11.54;37.34;101015.14;1721639;81;21008;-68
2022/05/10 05:48:43;;;;;;;3.90;1.62;;;;;;;11.62;37.66;101007.49;1771980;79;21109;-72
2022/05/10 05:51:10;;;;;;;3.35;1.80;;;;;;;11.72;36.09;101007.18;1723807;81;23696;-72
2022/05/10 05:53:38;;;;;;;2.85;1.62;;;;;;;11.77;36.78;101005.50;1765068;79;21014;-70
2022/05/10 05:56:11;;;;;;;5.42;2.00;;;;;;;11.86;37.16;101010.14;1778555;79;20966;-68
2022/05/10 05:58:39;;;;;;;3.22;1.82;;;;;;;11.98;36.55;101010.57;1735316;81;21007;-68
2022/05/10 06:01:14;;;;;;;3.72;2.00;;;;;;;12.07;36.51;101012.16;1771163;79;21090;-73
2022/05/10 06:03:44;;;;;;;4.42;1.77;;;;;;;12.15;36.22;101007.95;1773664;79;22449;-68
2022/05/10 06:06:13;;;;;;;5.35;1.60;;;;;;;12.20;36.02;101003.16;1739827;81;21113;-68
2022/05/10 06:08:40;;;;;;;2.33;1.57;;;;;;;12.25;35.96;100994.84;1751541;80;21394;-69
2022/05/10 06:11:07;;;;;;;4.65;1.92;;;;;;;12.30;36.30;101005.47;1779388;79;22397;-71
2022/05/10 06:13:37;;;;;;;3.65;1.82;;;;;;;12.36;35.58;101000.20;1784867;80;20995;-67
2022/05/10 06:16:08;;;;;;;2.47;1.60;;;;;;;12.48;34.97;100998.40;1783188;79;21849;-67
2022/05/10 06:18:36;;;;;;;4.25;1.95;;;;;;;12.56;34.24;100998.17;1779929;79;21103;-68
2022/05/10 06:21:03;;;;;;;2.67;1.60;;;;;;;12.64;34.21;100995.38;1775870;79;20976;-68
2022/05/10 06:23:31;;;;;;;5.10;1.85;;;;;;;12.72;33.75;101000.45;1777424;80;21008;-68
2022/05/10 06:25:59;;;;;;;3.65;1.62;;;;;;;12.77;33.78;100996.13;1785209;79;21004;-69
2022/05/10 06:28:26;;;;;;;4.00;1.80;;;;;;;12.85;33.47;100995.05;1780387;79;21873;-68
2022/05/10 06:30:55;;;;;;;5.47;1.52;;;;;;;12.94;34.53;100996.97;1754392;80;20924;-68
2022/05/10 06:33:24;;;;;;;3.55;1.70;;;;;;;13.09;33.47;100990.42;1772159;80;21059;-68
2022/05/10 06:35:53;;;;;;;2.95;1.80;;;;;;;13.17;33.14;100988.48;1781403;79;21012;-70
2022/05/10 06:38:27;;;;;;;5.62;1.95;;;;;;;13.21;32.54;100987.30;1772004;80;20983;-69
2022/05/10 06:40:49;;;;;;;3.05;1.85;;;;;;;13.22;31.33;100989.47;1778689;80;21956;-69
2022/05/10 06:43:17;;;;;;;3.65;1.72;;;;;;;13.22;32.66;100987.69;1783513;79;21127;-68
2022/05/10 06:45:45;;;;;;;4.92;1.85;;;;;;;13.30;31.86;100984.38;1764947;80;21442;-69
2022/05/10 06:48:13;;;;;;;3.92;1.62;;;;;;;13.40;31.73;100981.34;1780690;79;21083;-68
2022/05/10 06:50:43;;;;;;;5.28;1.50;;;;;;;13.48;31.29;100985.55;1779116;80;21076;-72
2022/05/10 06:53:10;;;;;;;4.72;1.70;;;;;;;13.53;31.38;100978.06;1783059;79;21836;-68
2022/05/10 06:55:38;;;;;;;2.00;1.52;;;;;;;13.63;30.88;100975.49;1778339;79;21492;-67
2022/05/10 06:58:05;;;;;;;4.40;1.50;;;;;;;13.75;31.18;100971.33;1777960;79;20979;-70
2022/05/10 07:00:37;;;;;;;2.02;1.45;;;;;;;13.87;29.56;100979.23;1767441;78;20976;-68
2022/05/10 07:03:11;;;;;;;1.95;1.42;;;;;;;13.91;29.83;100972.72;1772578;79;21459;-67
2022/05/10 07:05:44;;;;;;;2.95;1.30;;;;;;;13.99;30.07;100975.55;1766030;79;21443;-69
2022/05/10 07:08:12;;;;;;;2.60;1.20;;;;;;;14.11;29.11;100975.86;1752419;79;21457;-69
2022/05/10 07:10:39;;;;;;;2.00;1.20;;;;;;;14.20;27.85;100968.92;1777131;79;20944;-70
2022/05/10 07:13:07;;;;;;;2.87;1.10;;;;;;;14.29;27.87;100966.81;1768793;79;21015;-70
2022/05/10 07:15:35;;;;;;;4.80;1.20;;;;;;;14.29;27.23;100959.69;1771570;79;21131;-72
2022/05/10 07:18:02;;;;;;;3.85;1.20;;;;;;;14.30;27.70;100964.02;1777985;79;23056;-70
2022/05/10 07:20:32;;;;;;;2.25;1.10;;;;;;;14.39;27.07;100965.05;1767656;79;21004;-72
2022/05/10 07:23:01;;;;;;;3.45;1.10;;;;;;;14.44;27.46;100959.33;1779167;79;33229;-69
2022/05/10 07:25:28;;;;;;;2.42;1.17;;;;;;;14.56;27.97;100964.93;1771337;79;21043;-73
2022/05/10 07:27:56;;;;;;;5.95;1.30;;;;;;;14.69;27.18;100960.25;1770101;79;21026;-72
2022/05/10 07:30:26;;;;;;;2.50;1.00;;;;;;;14.72;26.82;100955.98;1731076;81;21883;-69
2022/05/10 07:32:55;;;;;;;6.05;0.90;;;;;;;14.68;27.11;100953.25;1725896;81;21078;-68
2022/05/10 07:36:23;;;;;;;2.27;1.10;;;;;;;14.69;28.03;100948.28;1721504;81;21043;-72
2022/05/10 07:37:52;;;;;;;1.15;0.82;;;;;;;14.85;27.86;100960.56;1717821;82;22304;-73
2022/05/10 07:40:21;;;;;;;1.95;1.27;;;;;;;14.96;27.07;100950.34;1718647;82;22305;-72
2022/05/10 07:42:48;;;;;;;2.30;1.07;;;;;;;15.03;27.13;100955.94;1710962;82;21952;-72
2022/05/10 07:45:16;;;;;;;2.27;0.90;;;;;;;15.08;26.33;100953.72;1721819;81;21023;-72
2022/05/10 07:47:46;;;;;;;1.57;0.90;;;;;;;15.05;26.14;100948.66;1719353;81;21518;-78
2022/05/10 07:50:14;;;;;;;1.67;0.90;;;;;;;15.01;26.21;100947.25;1719104;82;21114;-76
2022/05/10 07:52:41;;;;;;;2.33;1.00;;;;;;;15.01;26.35;100940.61;1693694;82;21052;-79
2022/05/10 07:55:09;;;;;;;1.98;1.00;;;;;;;15.02;26.98;100936.47;1708468;81;22508;-76
2022/05/10 07:57:37;;;;;;;2.45;1.10;;;;;;;15.13;26.84;100937.68;1694793;83;21032;-74
2022/05/10 08:00:08;;;;;;;2.47;1.22;;;;;;;15.27;26.40;100945.77;1724605;82;21605;-77
2022/05/10 08:02:37;;;;;;;;;;;;;;;15.34;25.46;100939.38;1697887;83;21612;-77
2022/05/10 08:05:06;;;;;;;1.00;0.80;;;;;;;15.36;25.20;100937.45;1725095;81;20243;-77
2022/05/10 08:07:34;;;;;;;2.58;1.00;;;;;;;15.30;25.30;100936.66;1718554;82;21956;-75
2022/05/10 08:10:05;;;;;;;1.82;0.95;;;;;;;15.20;25.66;100927.34;1728546;82;21075;-73
2022/05/10 08:12:33;;;;;;;2.00;0.90;;;;;;;15.20;26.14;100930.48;1726234;81;21014;-72
2022/05/10 08:15:00;;;;;;;2.17;1.00;;;;;;;15.24;26.71;100924.73;1717851;81;21048;-74
2022/05/10 08:17:28;;;;;;;2.02;1.20;;;;;;;15.41;27.04;100912.08;1694770;83;21114;-73
2022/05/10 08:19:55;;;;;;;1.42;1.00;;;;;;;15.56;26.10;100920.50;1694489;83;21972;-74
2022/05/10 08:22:22;;;;;;;2.67;0.90;;;;;;;15.63;25.81;100922.13;1725897;81;21019;-70
2022/05/10 08:24:49;;;;;;;3.72;1.00;;;;;;;15.65;26.34;100921.52;1729245;81;21687;-69
2022/05/10 08:27:17;;;;;;;1.75;1.00;;;;;;;15.70;25.07;100922.75;1709646;82;21046;-71
2022/05/10 08:29:44;;;;;;;1.80;0.95;;;;;;;15.65;25.62;100917.52;1714752;83;21101;-71
2022/05/10 08:32:11;;;;;;;2.60;0.90;;;;;;;15.69;26.34;100914.42;1712367;83;21471;-73
2022/05/10 08:34:39;;;;;;;2.25;1.10;;;;;;;15.87;26.63;100925.19;1767081;79;21039;-72
2022/05/10 08:37:07;;;;;;;6.22;0.90;;;;;;;16.03;25.94;100914.80;1764015;79;21115;-73
2022/05/10 08:39:35;;;;;;;2.05;1.05;;;;;;;16.10;26.12;100908.37;1754572;79;21066;-76
2022/05/10 08:42:23;;;;;;;2.98;1.20;;;;;;;16.22;25.62;100906.41;1746724;79;21042;-76
2022/05/10 08:44:54;;;;;;;2.70;0.95;;;;;;;16.27;24.95;100906.80;1765163;79;21953;-74
2022/05/10 08:47:21;;;;;;;3.45;1.10;;;;;;;16.32;25.44;100905.88;1756191;79;21030;-75
2022/05/10 08:50:02;;;;;;;2.00;1.15;;;;;;;16.46;25.94;100904.05;1747919;81;21059;-75
2022/05/10 08:52:33;;;;;;;1.80;1.05;;;;;;;16.60;25.21;100899.58;1728901;81;21031;-74
2022/05/10 08:55:01;;;;;;;1.27;1.00;;;;;;;16.70;25.81;100890.72;1710462;82;21126;-75
2022/05/10 08:57:49;;;;;;;1.98;1.00;;;;;;;16.86;25.70;100890.89;1767534;79;21935;-74
2022/05/10 09:00:49;;;;;;;1.95;0.95;;;;;;;16.97;24.70;100901.34;1766309;79;21066;-73
2022/05/10 09:03:50;;;;;;;1.50;0.90;;;;;;;16.89;25.23;100903.95;1749318;81;21501;-72
2022/05/10 09:07:00;;;;;;;2.87;1.00;;;;;;;16.83;24.57;100885.86;1756552;79;20991;-72
2022/05/10 09:09:33;;;;;;;3.62;1.00;;;;;;;16.70;25.39;100884.89;1749721;81;21078;-73
2022/05/10 09:12:11;;;;;;;3.75;1.10;;;;;;;16.71;24.63;100875.90;1767622;79;21972;-73
2022/05/10 09:14:59;;;;;;;5.28;1.20;;;;;;;16.77;24.92;100875.28;1722464;81;21043;-74
2022/05/10 09:17:29;;;;;;;2.37;1.00;;;;;;;16.93;25.39;100865.80;1728288;81;21059;-73
2022/05/10 09:19:56;;;;;;;3.12;1.00;;;;;;;17.05;25.85;100868.58;1725977;81;21047;-72
2022/05/10 09:22:35;;;;;;;2.62;1.30;;;;;;;17.25;25.65;100864.77;1773043;79;21480;-72
2022/05/10 09:25:02;;;;;;;1.60;1.00;;;;;;;17.34;24.63;100877.70;1778288;79;22433;-73
2022/05/10 09:27:34;;;;;;;2.42;1.20;;;;;;;17.32;23.97;100869.00;1770230;79;21034;-74
2022/05/10 09:30:02;;;;;;;2.45;1.10;;;;;;;17.24;24.49;100856.41;1777050;79;20996;-72
2022/05/10 09:35:27;;;;;;;2.60;0.95;;;;;;;17.36;24.72;100855.18;1775396;79;21078;-73
2022/05/10 09:38:04;;;;;;;2.40;1.20;;;;;;;17.55;24.15;100862.67;1751426;80;21926;-73
2022/05/10 09:40:48;;;;;;;5.83;1.20;;;;;;;17.66;23.64;100855.28;1774461;79;21006;-74
2022/05/10 09:43:33;;;;;;;2.08;1.00;;;;;;;17.73;23.80;100844.31;1774320;79;21376;-74
2022/05/10 09:46:23;;;;;;;2.17;0.93;;;;;;;17.88;24.27;100842.42;1776064;79;21035;-73
2022/05/10 09:48:51;;;;;;;1.65;1.07;;;;;;;18.09;24.49;100843.37;1761295;80;21035;-69
2022/05/10 09:51:41;;;;;;;5.30;1.25;;;;;;;18.24;22.99;100830.59;1771226;79;21938;-73
2022/05/10 09:54:25;;;;;;;2.37;1.10;;;;;;;18.21;22.58;100836.24;1774119;79;21024;-74
2022/05/10 09:56:56;;;;;;;1.82;1.20;;;;;;;17.96;22.69;100831.28;1762910;79;21531;-75
2022/05/10 09:59:40;;;;;;;1.60;0.98;;;;;;;17.92;24.84;100822.39;1762417;79;21079;-75
2022/05/10 10:02:07;;;;;;;1.80;0.93;;;;;;;18.16;24.42;100819.02;1775365;79;21062;-74
2022/05/10 10:04:40;;;;;;;2.87;1.10;;;;;;;18.43;24.47;100816.13;1780516;79;22206;-74
2022/05/10 10:07:21;;;;;;;2.12;1.17;;;;;;;18.75;24.26;100812.73;1770008;79;21019;-74
2022/05/10 10:09:52;;;;;;;1.22;0.80;;;;;;;19.00;22.74;100813.59;1767095;80;21571;-75
2022/05/10 10:12:41;;;;;;;1.70;1.00;;;;;;;19.07;23.02;100813.77;1778783;79;21437;-72
2022/05/10 10:15:25;;;;;;;3.08;1.10;;;;;;;18.91;22.16;100808.39;1762524;79;21023;-75
2022/05/10 10:17:59;;;;;;;5.17;1.10;;;;;;;18.62;23.06;100802.95;1753506;80;21854;-75
2022/05/10 10:20:37;;;;;;;2.30;1.00;;;;;;;18.72;23.97;100790.80;1759638;79;21534;-72
2022/05/10 10:23:26;;;;;;;1.98;1.17;;;;;;;18.80;22.74;100790.31;1776674;80;21008;-74
2022/05/10 10:25:59;;;;;;;2.60;1.10;;;;;;;18.80;22.79;100784.96;1775544;79;21031;-74
2022/05/10 10:28:34;;;;;;;1.87;0.85;;;;;;;18.91;23.37;100789.66;1768915;79;20988;-72
2022/05/10 10:31:13;;;;;;;3.58;0.90;;;;;;;18.97;22.31;100794.36;1773341;79;21932;-74
2022/05/10 10:34:04;;;;;;;3.52;1.00;;;;;;;18.89;22.34;100780.45;1750031;79;21076;-76
2022/05/10 10:36:39;;;;;;;1.65;1.00;;;;;;;18.99;22.68;100780.30;1762371;79;21003;-73
2022/05/10 10:39:27;;;;;;;2.45;1.10;;;;;;;19.23;22.37;100779.48;1766427;79;21015;-71
2022/05/10 10:41:59;;;;;;;2.47;0.90;;;;;;;19.39;21.63;100780.28;1753757;79;21457;-72
2022/05/10 10:44:28;;;;;;;4.65;1.27;;;;;;;19.18;21.94;100777.80;1763963;81;21847;-70
2022/05/10 10:47:25;;;;;;;1.85;1.10;;;;;;;18.92;22.26;100775.30;1764887;81;21054;-71
2022/05/10 10:50:21;;;;;;;3.45;0.90;;;;;;;18.81;22.36;100776.43;1779729;80;21067;-74
2022/05/10 10:52:52;;;;;;;1.92;1.17;;;;;;;18.84;22.68;100766.25;1780709;80;21490;-73
2022/05/10 10:55:21;;;;;;;1.82;0.80;;;;;;;18.98;22.78;100757.21;1761987;79;20999;-70
2022/05/10 10:58:30;;;;;;;3.70;0.90;;;;;;;19.11;22.44;100751.70;1770359;79;23541;-70
2022/05/10 11:01:15;;;;;;;5.92;1.00;;;;;;;19.30;22.97;100744.30;1780894;80;21026;-70
2022/05/10 11:03:55;;;;;;;3.27;1.00;;;;;;;19.64;22.71;100748.14;1780147;80;21008;-70
2022/05/10 11:06:28;;;;;;;2.62;1.00;;;;;;;19.82;21.56;100754.63;1774782;80;21498;-72
2022/05/10 11:09:45;;;;;;;2.35;0.80;;;;;;;19.76;22.01;100747.26;1765712;80;20999;-74
2022/05/10 11:12:56;;;;;;;2.22;1.00;;;;;;;19.86;21.56;100742.02;1760177;80;22493;-73
2022/05/10 11:15:42;;;;;;;2.47;1.15;;;;;;;19.77;21.00;100726.14;1750940;80;21273;-75
2022/05/10 11:18:25;;;;;;;3.10;0.98;;;;;;;19.73;21.56;100733.20;1759703;80;21012;-72
2022/05/10 11:21:22;;;;;;;3.37;1.10;;;;;;;19.90;21.25;100733.16;1779079;80;21028;-72
2022/05/10 11:24:07;;;;;;;4.30;1.20;;;;;;;19.91;21.23;100726.27;1758414;80;21047;-73
2022/05/10 11:27:07;;;;;;;4.45;1.20;;;;;;;19.88;21.69;100718.59;1764426;80;21968;-71
2022/05/10 11:29:40;;;;;;;6.33;1.20;;;;;;;20.01;22.14;100721.53;1760623;80;20919;-73
2022/05/10 11:32:27;;;;;;;3.52;1.20;;;;;;;20.35;21.73;100707.43;1768595;79;20996;-74
2022/05/10 11:35:33;;;;;;;2.52;1.20;;;;;;;20.60;21.74;100707.64;1779248;80;21419;-73
2022/05/10 11:38:27;;;;;;;2.95;1.00;;;;;;;20.96;21.07;100708.37;1778443;80;21063;-73
2022/05/10 11:41:05;;;;;;;1.60;1.10;;;;;;;20.92;20.33;100711.08;1778952;80;21953;-74
2022/05/10 11:44:02;;;;;;;1.80;1.12;;;;;;;20.82;20.80;100696.05;1778207;80;21086;-74
2022/05/10 11:46:54;;;;;;;4.67;1.10;;;;;;;20.90;20.57;100709.92;1777635;80;21031;-70
2022/05/10 11:49:35;;;;;;;5.35;0.90;;;;;;;20.87;20.33;100700.89;1764610;80;22085;-73
2022/05/10 11:52:44;;;;;;;4.65;1.20;;;;;;;20.89;20.88;100711.45;1748958;80;21035;-72
2022/05/10 11:55:34;;;;;;;6.47;1.02;;;;;;;20.96;19.99;100686.38;1778359;80;21822;-72
2022/05/10 11:58:05;;;;;;;2.40;1.10;;;;;;;20.80;19.80;100689.20;1778293;80;21004;-72
2022/05/10 12:00:37;;;;;;;4.30;1.10;;;;;;;20.73;20.06;100689.58;1778179;80;21039;-74
2022/05/10 12:03:06;;;;;;;2.80;0.82;;;;;;;20.83;20.20;100694.20;1745181;81;21497;-73
2022/05/10 12:05:35;;;;;;;2.22;0.98;;;;;;;21.02;20.12;100679.43;1710468;81;21488;-72
2022/05/10 12:08:22;;;;;;;4.80;0.90;;;;;;;20.99;19.44;100680.64;1777354;80;21935;-73